Terminal Aerodrome Forecast
Issued by NWS

Current Version | Previous Version | Text Only | Print | Product List | Glossary Off
Versions: 1 2 3 4 5 6 7 8 9 10 11 12

000
FTUS44 KCRP 171700 RRA
TAFLRD
TAF
KLRD 171743Z 1718/1818 12013KT P6SM SCT030 BKN050
     FM180300 10008KT P6SM OVC025
     FM180800 08008KT P6SM OVC007
     FM181500 08010KT P6SM OVC015=

USA.gov is the U.S. government's official web portal to all federal, state and local government web resources and services.